createdAt,value
2023-01-01T00:01:25.686Z,9.97
2023-01-01T00:03:53.881Z,9.82
2023-01-01T00:06:20.781Z,9.77
2023-01-01T00:08:47.831Z,10.06
2023-01-01T00:11:14.666Z,9.74
2023-01-01T00:13:42.249Z,9.53
2023-01-01T00:16:11.120Z,9.53
2023-01-01T00:18:38.525Z,9.57
2023-01-01T00:21:07.307Z,9.54
2023-01-01T00:23:35.146Z,9.41
2023-01-01T00:26:02.167Z,9.20
2023-01-01T00:28:28.577Z,9.49
2023-01-01T00:30:55.141Z,9.40
2023-01-01T00:33:21.525Z,9.38
2023-01-01T00:35:47.980Z,9.30
2023-01-01T00:38:14.443Z,9.32
2023-01-01T00:40:40.885Z,9.45
2023-01-01T00:43:07.296Z,9.35
2023-01-01T00:45:33.784Z,9.51
2023-01-01T00:48:00.231Z,9.56
2023-01-01T00:50:26.717Z,9.59
2023-01-01T00:52:53.113Z,9.68
2023-01-01T00:55:19.538Z,9.66
2023-01-01T00:57:45.940Z,9.84
2023-01-01T01:00:13.153Z,10.33
2023-01-01T01:02:39.743Z,10.29
2023-01-01T01:05:06.841Z,10.28
2023-01-01T01:07:36.473Z,10.30
2023-01-01T01:10:03.231Z,10.49
2023-01-01T01:12:29.603Z,10.55
2023-01-01T01:14:56.033Z,10.52
2023-01-01T01:17:22.439Z,10.58
2023-01-01T01:19:48.834Z,10.84
2023-01-01T01:22:15.197Z,10.87
2023-01-01T01:24:41.575Z,11.01
2023-01-01T01:27:08.093Z,10.98
2023-01-01T01:29:34.455Z,11.38
2023-01-01T01:32:00.892Z,11.56
2023-01-01T01:34:28.342Z,11.72
2023-01-01T01:36:57.104Z,11.84
2023-01-01T01:39:23.663Z,11.77
2023-01-01T01:41:50.403Z,12.00
2023-01-01T01:44:53.163Z,12.17
2023-01-01T01:47:30.872Z,12.15
2023-01-01T01:50:15.581Z,12.20
2023-01-01T01:52:55.517Z,12.23
2023-01-01T01:55:22.081Z,12.22
2023-01-01T01:57:48.622Z,12.35
2023-01-01T02:00:15.599Z,12.41
2023-01-01T02:02:56.928Z,12.46
2023-01-01T02:05:24.671Z,12.53
2023-01-01T02:07:52.674Z,12.60
2023-01-01T02:10:19.483Z,12.48
2023-01-01T02:12:45.963Z,12.40
2023-01-01T02:15:12.614Z,12.11
2023-01-01T02:17:51.282Z,12.43
2023-01-01T02:20:33.927Z,12.53
2023-01-01T02:23:15.656Z,12.69
2023-01-01T02:25:52.383Z,12.67
2023-01-01T02:28:36.292Z,12.80
2023-01-01T02:31:05.057Z,12.80
2023-01-01T02:33:31.949Z,12.77
2023-01-01T02:36:01.644Z,12.74
2023-01-01T02:38:31.482Z,12.85
2023-01-01T02:41:05.169Z,12.93
2023-01-01T02:43:31.534Z,12.89
2023-01-01T02:45:58.253Z,12.83
2023-01-01T02:48:51.192Z,12.94
2023-01-01T02:51:27.307Z,12.87
2023-01-01T02:54:09.940Z,13.05
2023-01-01T02:56:42.186Z,12.95
2023-01-01T02:59:38.023Z,13.03
2023-01-01T03:02:45.275Z,13.02
2023-01-01T03:05:30.770Z,13.07
2023-01-01T03:08:13.685Z,13.22
2023-01-01T03:10:50.775Z,13.01
2023-01-01T03:13:44.597Z,13.03
2023-01-01T03:16:15.941Z,13.14
2023-01-01T03:19:10.451Z,13.03
2023-01-01T03:21:51.576Z,13.01
2023-01-01T03:24:27.960Z,13.07
2023-01-01T03:26:59.334Z,12.92
2023-01-01T03:29:29.973Z,12.95
2023-01-01T03:31:59.875Z,13.04
2023-01-01T03:34:39.603Z,13.00
2023-01-01T03:37:15.628Z,12.98
2023-01-01T03:39:48.472Z,13.08
2023-01-01T03:42:26.819Z,13.00
2023-01-01T03:45:01.699Z,13.07
2023-01-01T03:47:29.369Z,12.91
2023-01-01T03:49:57.230Z,13.01
2023-01-01T03:52:32.471Z,12.92
2023-01-01T03:55:04.870Z,12.76
2023-01-01T03:57:37.484Z,12.88
2023-01-01T04:00:11.505Z,12.99
2023-01-01T04:02:43.337Z,13.13
2023-01-01T04:05:10.922Z,13.19
2023-01-01T04:07:38.208Z,13.19
2023-01-01T04:10:17.145Z,13.31
2023-01-01T04:12:49.864Z,13.18
2023-01-01T04:15:18.375Z,13.25
2023-01-01T04:17:45.153Z,13.14
2023-01-01T04:20:12.433Z,13.34
2023-01-01T04:22:39.207Z,13.23
2023-01-01T04:25:06.355Z,13.14
2023-01-01T04:27:36.472Z,13.23
2023-01-01T04:30:04.660Z,13.05
2023-01-01T04:32:31.147Z,12.93
2023-01-01T04:34:57.526Z,12.82
2023-01-01T04:37:23.931Z,12.77
2023-01-01T04:39:50.303Z,12.66
2023-01-01T04:42:16.643Z,12.60
2023-01-01T04:44:43.051Z,12.45
2023-01-01T04:47:09.763Z,12.32
2023-01-01T04:49:36.365Z,12.35
2023-01-01T04:52:03.221Z,11.99
2023-01-01T04:54:29.644Z,11.63
2023-01-01T04:56:56.078Z,11.46
2023-01-01T04:59:22.526Z,11.16
2023-01-01T05:01:48.998Z,10.98
2023-01-01T05:04:17.211Z,10.89
2023-01-01T05:06:44.078Z,11.16
2023-01-01T05:09:11.655Z,11.12
2023-01-01T05:11:38.443Z,11.15
2023-01-01T05:14:05.787Z,11.08
2023-01-01T05:16:35.394Z,11.01
2023-01-01T05:19:02.345Z,10.86
2023-01-01T05:21:34.303Z,10.64
2023-01-01T05:24:04.050Z,10.51
2023-01-01T05:26:33.548Z,10.29
2023-01-01T05:29:01.547Z,10.36
2023-01-01T05:31:31.050Z,10.12
2023-01-01T05:36:27.447Z,9.97
2023-01-01T05:38:54.686Z,10.00
2023-01-01T05:41:22.233Z,10.66
2023-01-01T05:43:49.343Z,10.78
2023-01-01T05:46:18.476Z,10.81
2023-01-01T05:48:45.395Z,10.93
2023-01-01T05:51:14.848Z,10.80
2023-01-01T05:53:42.134Z,10.58
2023-01-01T05:56:08.522Z,10.84
2023-01-01T05:58:35.623Z,10.78
2023-01-01T06:01:17.268Z,10.55
2023-01-01T06:03:44.714Z,10.44
2023-01-01T06:06:14.077Z,10.55
2023-01-01T06:08:41.015Z,10.60
2023-01-01T06:11:10.604Z,10.68
2023-01-01T06:13:37.321Z,10.64
2023-01-01T06:16:04.814Z,10.63
2023-01-01T06:18:33.209Z,10.59
2023-01-01T06:21:15.111Z,10.63
2023-01-01T06:23:42.589Z,10.91
2023-01-01T06:26:21.202Z,10.73
2023-01-01T06:28:48.225Z,10.58
2023-01-01T06:31:17.391Z,10.41
2023-01-01T06:33:44.696Z,10.37
2023-01-01T06:36:13.403Z,10.64
2023-01-01T06:38:42.504Z,10.20
2023-01-01T06:41:13.486Z,10.29
2023-01-01T06:43:40.291Z,10.48
2023-01-01T06:46:08.337Z,10.39
2023-01-01T06:48:36.364Z,10.27
2023-01-01T06:51:16.980Z,10.06
2023-01-01T06:53:43.914Z,9.90
2023-01-01T06:56:11.152Z,10.08
2023-01-01T06:58:37.805Z,9.91
2023-01-01T07:01:08.610Z,9.87
2023-01-01T07:03:36.795Z,10.05
2023-01-01T07:06:03.691Z,10.12
2023-01-01T07:08:30.268Z,10.12
2023-01-01T07:10:57.611Z,10.02
2023-01-01T07:13:28.248Z,10.06
2023-01-01T07:15:57.556Z,10.11
2023-01-01T07:18:27.249Z,9.96
2023-01-01T07:20:56.686Z,9.77
2023-01-01T07:23:25.827Z,9.93
2023-01-01T07:25:53.521Z,10.06
2023-01-01T07:28:21.739Z,10.15
2023-01-01T07:30:48.900Z,10.07
2023-01-01T07:33:18.395Z,10.20
2023-01-01T07:35:49.443Z,10.04
2023-01-01T07:38:15.898Z,10.06
2023-01-01T07:40:42.991Z,9.99
2023-01-01T07:43:10.206Z,9.97
2023-01-01T07:45:36.880Z,10.03
2023-01-01T07:48:03.518Z,10.09
2023-01-01T07:50:32.307Z,9.96
2023-01-01T07:53:01.901Z,9.96
2023-01-01T07:55:29.713Z,10.02
2023-01-01T07:57:56.167Z,10.06
2023-01-01T08:00:25.922Z,9.95
2023-01-01T08:02:55.536Z,9.84
2023-01-01T08:05:26.510Z,9.74
2023-01-01T08:07:55.079Z,9.87
2023-01-01T08:10:25.285Z,9.81
2023-01-01T08:12:52.012Z,10.09
2023-01-01T08:15:18.703Z,10.34
2023-01-01T08:17:47.216Z,10.61
2023-01-01T08:20:14.572Z,10.89
2023-01-01T08:22:41.030Z,11.17
2023-01-01T08:25:08.463Z,11.21
2023-01-01T08:27:36.421Z,11.32
2023-01-01T08:30:03.750Z,11.42
2023-01-01T08:32:30.331Z,11.55
2023-01-01T08:34:56.855Z,11.71
2023-01-01T08:37:24.050Z,11.86
2023-01-01T08:39:53.472Z,11.94
2023-01-01T08:42:20.925Z,12.15
2023-01-01T08:44:47.380Z,12.26
2023-01-01T08:47:23.060Z,12.46
2023-01-01T08:49:49.967Z,12.53
2023-01-01T08:52:16.484Z,12.71
2023-01-01T08:54:44.298Z,12.75
2023-01-01T08:57:11.117Z,12.84
2023-01-01T08:59:37.765Z,12.91
2023-01-01T09:02:04.983Z,12.91
2023-01-01T09:04:31.558Z,12.87
2023-01-01T09:06:58.267Z,12.94
2023-01-01T09:09:31.121Z,13.13
2023-01-01T09:12:03.941Z,12.98
2023-01-01T09:14:32.140Z,13.18
2023-01-01T09:16:58.740Z,13.26
2023-01-01T09:19:25.363Z,13.22
2023-01-01T09:21:52.601Z,13.44
2023-01-01T09:24:19.104Z,13.57
2023-01-01T09:26:47.937Z,13.48
2023-01-01T09:29:18.456Z,13.51
2023-01-01T09:31:45.672Z,13.55
2023-01-01T09:34:12.763Z,13.53
2023-01-01T09:36:39.691Z,13.67
2023-01-01T09:39:08.833Z,13.75
2023-01-01T09:41:55.308Z,13.67
2023-01-01T09:44:44.638Z,13.81
2023-01-01T09:47:26.890Z,13.89
2023-01-01T09:49:56.880Z,13.92
2023-01-01T09:52:28.543Z,14.22
2023-01-01T09:55:00.971Z,14.15
2023-01-01T09:57:32.043Z,14.15
2023-01-01T10:00:00.232Z,14.22
2023-01-01T10:02:35.580Z,14.33
2023-01-01T10:05:26.995Z,14.53
2023-01-01T10:08:05.796Z,14.50
2023-01-01T10:10:40.217Z,14.64
2023-01-01T10:13:27.150Z,14.75
2023-01-01T10:15:59.363Z,14.73
2023-01-01T10:18:37.191Z,14.67
2023-01-01T10:21:10.699Z,14.72
2023-01-01T10:23:52.139Z,14.68
2023-01-01T10:26:21.541Z,14.64
2023-01-01T10:29:06.791Z,14.74
2023-01-01T10:31:41.259Z,14.72
2023-01-01T10:34:13.426Z,14.90
2023-01-01T10:36:39.930Z,14.98
2023-01-01T10:39:06.400Z,14.78
2023-01-01T10:41:32.831Z,14.76
2023-01-01T10:43:59.591Z,14.75
2023-01-01T10:46:31.765Z,14.76
2023-01-01T10:49:07.116Z,14.89
2023-01-01T10:51:37.349Z,14.92
2023-01-01T10:54:03.912Z,15.06
2023-01-01T10:56:41.059Z,14.95
2023-01-01T10:59:54.601Z,14.97
2023-01-01T11:02:22.888Z,14.94
2023-01-01T11:04:50.972Z,15.08
2023-01-01T11:07:24.956Z,14.94
2023-01-01T11:10:02.692Z,14.93
2023-01-01T11:13:03.723Z,15.10
2023-01-01T11:15:24.158Z,15.18
2023-01-01T11:17:51.031Z,15.19
2023-01-01T11:20:21.002Z,15.18
2023-01-01T11:22:52.984Z,15.15
2023-01-01T11:25:21.803Z,15.27
2023-01-01T11:27:49.533Z,15.15
2023-01-01T11:30:25.264Z,15.08
2023-01-01T11:32:57.622Z,15.19
2023-01-01T11:35:27.556Z,15.32
2023-01-01T11:37:56.190Z,15.38
2023-01-01T11:40:33.398Z,15.30
2023-01-01T11:43:03.027Z,15.29
2023-01-01T11:45:38.049Z,15.32
2023-01-01T11:48:12.634Z,15.28
2023-01-01T11:50:40.588Z,15.20
2023-01-01T11:53:21.977Z,15.26
2023-01-01T11:56:09.033Z,15.32
2023-01-01T11:58:48.581Z,15.38
2023-01-01T12:01:33.816Z,15.34
2023-01-01T12:04:07.138Z,15.49
2023-01-01T12:06:41.831Z,15.57
2023-01-01T12:09:30.231Z,15.42
2023-01-01T12:12:25.611Z,15.45
2023-01-01T12:15:10.341Z,15.51
2023-01-01T12:17:42.618Z,15.45
2023-01-01T12:20:21.319Z,15.44
2023-01-01T12:22:48.538Z,15.41
2023-01-01T12:25:17.852Z,15.35
2023-01-01T12:27:47.309Z,15.52
2023-01-01T12:30:21.547Z,15.41
2023-01-01T12:32:47.970Z,15.41
2023-01-01T12:35:33.400Z,15.36
2023-01-01T12:38:27.536Z,15.54
2023-01-01T12:41:10.470Z,15.40
2023-01-01T12:44:06.866Z,15.40
2023-01-01T12:46:52.066Z,15.72
2023-01-01T12:49:37.721Z,15.39
2023-01-01T12:52:29.185Z,15.41
2023-01-01T12:55:22.797Z,15.37
2023-01-01T12:57:57.460Z,15.38
2023-01-01T13:00:24.591Z,15.45
2023-01-01T13:02:56.675Z,15.40
2023-01-01T13:05:31.305Z,15.29
2023-01-01T13:08:03.156Z,15.32
2023-01-01T13:10:39.378Z,15.38
2023-01-01T13:13:06.319Z,15.28
2023-01-01T13:15:38.840Z,15.27
2023-01-01T13:18:14.463Z,15.33
2023-01-01T13:20:46.714Z,15.21
2023-01-01T13:23:31.493Z,15.30
2023-01-01T13:26:25.791Z,15.36
2023-01-01T13:28:52.111Z,15.32
2023-01-01T13:31:18.884Z,15.15
2023-01-01T13:34:23.840Z,15.16
2023-01-01T13:36:50.263Z,14.90
2023-01-01T13:39:54.137Z,15.11
2023-01-01T13:42:52.331Z,14.96
2023-01-01T13:46:01.103Z,14.86
2023-01-01T13:48:32.113Z,14.93
2023-01-01T13:51:54.897Z,14.89
2023-01-01T13:54:16.262Z,15.04
2023-01-01T13:57:02.814Z,15.08
2023-01-01T14:00:05.047Z,14.85
2023-01-01T14:02:45.185Z,14.84
2023-01-01T14:05:22.117Z,14.93
2023-01-01T14:07:54.158Z,14.88
2023-01-01T14:10:23.530Z,14.85
2023-01-01T14:12:52.016Z,15.10
2023-01-01T14:15:37.863Z,14.82
2023-01-01T14:18:10.282Z,14.85
2023-01-01T14:20:42.605Z,14.86
2023-01-01T14:23:32.305Z,14.91
2023-01-01T14:26:02.341Z,14.87
2023-01-01T14:28:34.127Z,15.00
2023-01-01T14:31:11.053Z,14.83
2023-01-01T14:33:39.076Z,15.05
2023-01-01T14:36:15.834Z,14.97
2023-01-01T14:38:47.303Z,15.01
2023-01-01T14:41:20.419Z,14.96
2023-01-01T14:43:49.232Z,14.90
2023-01-01T14:46:19.206Z,14.87
2023-01-01T14:48:53.004Z,14.81
2023-01-01T14:51:23.657Z,14.83
2023-01-01T14:54:02.273Z,14.82
2023-01-01T14:56:34.542Z,14.81
2023-01-01T14:59:09.794Z,14.82
2023-01-01T15:01:36.406Z,14.83
2023-01-01T15:04:15.787Z,14.73
2023-01-01T15:06:42.250Z,14.68
2023-01-01T15:09:16.123Z,14.74
2023-01-01T15:11:42.717Z,14.69
2023-01-01T15:14:31.002Z,14.62
2023-01-01T15:17:05.937Z,14.47
2023-01-01T15:19:34.868Z,14.43
2023-01-01T15:22:01.832Z,14.36
2023-01-01T15:24:30.286Z,14.14
2023-01-01T15:26:59.379Z,14.18
2023-01-01T15:29:38.577Z,14.04
2023-01-01T15:32:09.410Z,14.03
2023-01-01T15:34:57.377Z,13.96
2023-01-01T15:37:41.962Z,13.90
2023-01-01T15:40:14.061Z,13.99
2023-01-01T15:42:48.841Z,13.87
2023-01-01T15:45:31.784Z,13.90
2023-01-01T15:48:34.924Z,13.91
2023-01-01T15:51:28.493Z,13.84
2023-01-01T15:53:58.296Z,13.74
2023-01-01T15:56:28.499Z,13.68
2023-01-01T15:59:17.179Z,13.71
2023-01-01T16:01:43.907Z,13.70
2023-01-01T16:04:24.123Z,13.59
2023-01-01T16:06:54.401Z,13.52
2023-01-01T16:09:21.750Z,13.49
2023-01-01T16:11:54.833Z,13.48
2023-01-01T16:14:21.697Z,13.36
2023-01-01T16:16:57.231Z,13.30
2023-01-01T16:19:24.527Z,13.16
2023-01-01T16:21:50.990Z,13.09
2023-01-01T16:24:18.853Z,13.00
2023-01-01T16:26:45.866Z,12.94
2023-01-01T16:29:12.846Z,13.19
2023-01-01T16:31:40.189Z,13.16
2023-01-01T16:34:07.204Z,13.25
2023-01-01T16:36:33.592Z,13.20
2023-01-01T16:39:00.329Z,13.58
2023-01-01T16:41:28.713Z,13.44
2023-01-01T16:43:55.163Z,13.43
2023-01-01T16:46:21.562Z,13.36
2023-01-01T16:48:48.007Z,13.31
2023-01-01T16:51:20.620Z,13.42
2023-01-01T16:53:47.636Z,13.47
2023-01-01T16:56:14.643Z,13.43
2023-01-01T16:58:51.291Z,13.40
2023-01-01T17:01:20.619Z,13.49
2023-01-01T17:03:47.154Z,13.36
2023-01-01T17:06:13.732Z,13.34
2023-01-01T17:08:40.234Z,13.36
2023-01-01T17:11:17.564Z,13.37
2023-01-01T17:13:45.826Z,13.38
2023-01-01T17:16:15.599Z,13.38
2023-01-01T17:21:38.999Z,13.47
2023-01-01T17:24:05.967Z,13.53
2023-01-01T17:26:32.380Z,13.52
2023-01-01T17:29:01.514Z,13.49
2023-01-01T17:31:28.972Z,13.39
2023-01-01T17:33:55.822Z,13.43
2023-01-01T17:36:22.244Z,13.42
2023-01-01T17:38:48.806Z,13.61
2023-01-01T17:41:16.461Z,13.55
2023-01-01T17:43:46.098Z,13.41
2023-01-01T17:46:18.666Z,13.46
2023-01-01T17:48:45.741Z,13.42
2023-01-01T17:51:13.456Z,13.52
2023-01-01T17:53:41.022Z,13.59
2023-01-01T17:56:09.690Z,13.71
2023-01-01T17:58:36.178Z,13.81
2023-01-01T18:01:21.235Z,13.83
2023-01-01T18:03:56.213Z,13.84
2023-01-01T18:06:22.819Z,13.73
2023-01-01T18:08:53.760Z,13.62
2023-01-01T18:11:20.131Z,13.65
2023-01-01T18:13:46.477Z,13.54
2023-01-01T18:16:13.024Z,13.58
2023-01-01T18:18:40.423Z,13.44
2023-01-01T18:21:14.316Z,13.39
2023-01-01T18:23:41.723Z,13.41
2023-01-01T18:26:10.512Z,13.44
2023-01-01T18:28:37.818Z,13.43
2023-01-01T18:31:15.694Z,13.31
2023-01-01T18:33:43.676Z,13.43
2023-01-01T18:36:12.996Z,13.36
2023-01-01T18:38:41.162Z,13.38
2023-01-01T18:41:37.913Z,13.37
2023-01-01T18:44:14.909Z,13.40
2023-01-01T18:46:41.373Z,13.31
2023-01-01T18:49:09.431Z,13.25
2023-01-01T18:51:35.864Z,13.17
2023-01-01T18:54:02.242Z,13.22
2023-01-01T18:56:29.426Z,13.25
2023-01-01T18:58:57.872Z,13.13
2023-01-01T19:01:25.151Z,13.23
2023-01-01T19:03:56.076Z,13.08
2023-01-01T19:06:28.089Z,13.10
2023-01-01T19:09:13.489Z,13.33
2023-01-01T19:11:39.912Z,13.17
2023-01-01T19:14:16.224Z,13.28
2023-01-01T19:16:44.477Z,13.42
2023-01-01T19:19:22.683Z,13.34
2023-01-01T19:21:52.524Z,13.41
2023-01-01T19:24:24.499Z,13.48
2023-01-01T19:27:02.751Z,13.39
2023-01-01T19:29:30.578Z,13.25
2023-01-01T19:31:58.478Z,13.25
2023-01-01T19:34:25.220Z,13.32
2023-01-01T19:36:52.058Z,13.24
2023-01-01T19:39:19.326Z,13.30
2023-01-01T19:41:46.139Z,13.42
2023-01-01T19:44:12.531Z,13.40
2023-01-01T19:46:40.305Z,13.27
2023-01-01T19:49:06.792Z,13.28
2023-01-01T19:51:35.088Z,13.15
2023-01-01T19:54:01.656Z,13.25
2023-01-01T19:56:28.181Z,13.24
2023-01-01T19:58:54.745Z,13.20
2023-01-01T20:01:21.369Z,13.19
2023-01-01T20:03:57.243Z,13.09
2023-01-01T20:06:25.175Z,12.92
2023-01-01T20:08:52.264Z,13.01
2023-01-01T20:11:19.945Z,12.85
2023-01-01T20:13:46.569Z,12.78
2023-01-01T20:16:13.125Z,12.70
2023-01-01T20:18:39.721Z,12.46
2023-01-01T20:21:26.682Z,12.26
2023-01-01T20:23:54.116Z,12.27
2023-01-01T20:26:20.863Z,12.23
2023-01-01T20:29:06.271Z,12.32
2023-01-01T20:31:32.922Z,12.19
2023-01-01T20:33:59.350Z,12.13
2023-01-01T20:36:44.372Z,12.25
2023-01-01T20:39:10.832Z,12.10
2023-01-01T20:41:37.414Z,11.90
2023-01-01T20:44:04.013Z,11.87
2023-01-01T20:46:30.480Z,11.72
2023-01-01T20:48:57.566Z,11.69
2023-01-01T20:51:24.244Z,11.68
2023-01-01T20:53:50.943Z,11.59
2023-01-01T20:56:17.430Z,11.42
2023-01-01T20:58:48.564Z,11.48
2023-01-01T21:01:18.249Z,11.39
2023-01-01T21:03:44.947Z,11.12
2023-01-01T21:06:11.483Z,11.06
2023-01-01T21:08:38.053Z,10.95
2023-01-01T21:11:04.678Z,10.60
2023-01-01T21:13:31.078Z,10.82
2023-01-01T21:16:13.196Z,10.77
2023-01-01T21:18:40.908Z,10.79
2023-01-01T21:21:25.321Z,10.63
2023-01-01T21:23:56.914Z,10.57
2023-01-01T21:26:29.758Z,10.54
2023-01-01T21:28:59.256Z,10.56
2023-01-01T21:31:29.436Z,10.48
2023-01-01T21:33:55.908Z,10.47
2023-01-01T21:36:23.752Z,10.50
2023-01-01T21:38:51.957Z,10.50
2023-01-01T21:41:24.964Z,10.55
2023-01-01T21:43:58.651Z,10.72
2023-01-01T21:46:28.106Z,10.59
2023-01-01T21:49:01.900Z,10.50
2023-01-01T21:51:35.734Z,10.71
2023-01-01T21:54:26.271Z,10.64
2023-01-01T21:57:13.564Z,10.63
2023-01-01T21:59:43.339Z,10.89
2023-01-01T22:02:09.777Z,10.99
2023-01-01T22:04:50.480Z,11.25
2023-01-01T22:07:57.216Z,11.13
2023-01-01T22:10:16.905Z,11.14
2023-01-01T22:12:43.446Z,11.35
2023-01-01T22:15:25.058Z,11.15
2023-01-01T22:18:12.242Z,11.10
2023-01-01T22:20:41.808Z,11.13
2023-01-01T22:23:28.415Z,11.25
2023-01-01T22:25:54.808Z,11.37
2023-01-01T22:28:27.122Z,11.35
2023-01-01T22:30:57.469Z,11.38
2023-01-01T22:33:35.817Z,11.34
2023-01-01T22:36:03.013Z,11.28
2023-01-01T22:38:33.258Z,11.42
2023-01-01T22:40:59.764Z,11.30
2023-01-01T22:43:31.803Z,11.27
2023-01-01T22:45:59.940Z,11.37
2023-01-01T22:48:37.630Z,11.31
2023-01-01T22:51:18.484Z,11.25
2023-01-01T22:53:45.004Z,11.27
2023-01-01T22:56:11.853Z,11.26
2023-01-01T22:58:38.302Z,11.23
2023-01-01T23:01:04.959Z,11.10
2023-01-01T23:03:31.439Z,11.06
2023-01-01T23:05:58.509Z,11.02
2023-01-01T23:08:25.779Z,11.05
2023-01-01T23:10:53.478Z,10.92
2023-01-01T23:13:58.376Z,11.02
2023-01-01T23:16:24.855Z,11.00
2023-01-01T23:18:51.263Z,11.17
2023-01-01T23:21:24.401Z,11.22
2023-01-01T23:23:54.854Z,11.09
2023-01-01T23:26:21.508Z,11.12
2023-01-01T23:28:48.084Z,11.09
2023-01-01T23:31:24.324Z,11.07
2023-01-01T23:33:55.816Z,10.99
2023-01-01T23:36:23.956Z,10.92
2023-01-01T23:38:50.382Z,10.67
2023-01-01T23:41:16.752Z,10.70
2023-01-01T23:43:43.999Z,10.76
2023-01-01T23:46:14.177Z,10.71
2023-01-01T23:48:43.239Z,10.77
2023-01-01T23:51:09.947Z,10.67
2023-01-01T23:53:36.356Z,10.62
2023-01-01T23:56:02.763Z,10.70
2023-01-01T23:58:29.158Z,10.66
